createdAt,value
2022-08-19T00:02:04.063Z,7.70
2022-08-19T00:04:35.857Z,7.32
2022-08-19T00:07:04.895Z,7.30
2022-08-19T00:09:31.887Z,6.78
2022-08-19T00:11:59.696Z,7.57
2022-08-19T00:14:28.008Z,6.65
2022-08-19T00:16:55.613Z,7.40
2022-08-19T00:19:23.357Z,7.43
2022-08-19T00:21:50.409Z,7.60
2022-08-19T00:24:17.487Z,8.10
2022-08-19T00:26:46.268Z,7.80
2022-08-19T00:29:16.043Z,7.32
2022-08-19T00:31:44.065Z,7.22
2022-08-19T00:34:13.004Z,7.00
2022-08-19T00:36:40.961Z,7.72
2022-08-19T00:39:08.531Z,8.35
2022-08-19T00:41:35.493Z,8.25
2022-08-19T00:44:12.267Z,7.43
2022-08-19T00:46:42.320Z,7.22
2022-08-19T00:49:17.971Z,7.63
2022-08-19T00:51:47.819Z,8.02
2022-08-19T00:54:16.017Z,8.55
2022-08-19T00:56:43.556Z,7.22
2022-08-19T00:59:11.407Z,8.27
2022-08-19T01:01:42.050Z,7.28
2022-08-19T01:04:09.306Z,9.48
2022-08-19T01:06:39.004Z,8.00
2022-08-19T01:09:06.683Z,7.95
2022-08-19T01:11:36.632Z,6.95
2022-08-19T01:14:04.806Z,7.50
2022-08-19T01:16:33.900Z,7.40
2022-08-19T01:19:01.375Z,8.02
2022-08-19T01:21:41.459Z,7.82
2022-08-19T01:24:08.431Z,7.82
2022-08-19T01:26:42.656Z,7.57
2022-08-19T01:29:11.491Z,8.02
2022-08-19T01:31:40.356Z,7.57
2022-08-19T01:34:07.986Z,7.30
2022-08-19T01:36:42.937Z,8.32
2022-08-19T01:39:13.749Z,7.90
2022-08-19T01:41:40.943Z,7.50
2022-08-19T01:44:18.734Z,7.72
2022-08-19T01:46:48.543Z,7.97
2022-08-19T01:49:16.871Z,7.95
2022-08-19T01:51:43.743Z,8.00
2022-08-19T01:54:13.507Z,7.65
2022-08-19T01:56:40.256Z,7.70
2022-08-19T01:59:12.780Z,7.63
2022-08-19T02:01:39.802Z,8.27
2022-08-19T02:04:06.818Z,8.20
2022-08-19T02:06:34.141Z,8.82
2022-08-19T02:09:01.363Z,8.27
2022-08-19T02:11:34.550Z,8.23
2022-08-19T02:16:31.395Z,7.47
2022-08-19T02:19:01.497Z,8.65
2022-08-19T02:21:29.964Z,8.45
2022-08-19T02:23:57.891Z,8.65
2022-08-19T02:26:27.436Z,8.95
2022-08-19T02:28:55.540Z,9.98
2022-08-19T02:31:25.639Z,8.07
2022-08-19T02:33:56.740Z,8.27
2022-08-19T02:36:25.795Z,8.43
2022-08-19T02:38:54.345Z,9.68
2022-08-19T02:41:28.288Z,9.70
2022-08-19T02:44:29.391Z,8.30
2022-08-19T02:46:47.941Z,8.35
2022-08-19T02:49:17.558Z,8.80
2022-08-19T02:51:46.660Z,9.65
2022-08-19T02:54:14.936Z,8.77
2022-08-19T02:56:44.376Z,8.45
2022-08-19T02:59:12.089Z,9.45
2022-08-19T03:01:42.485Z,9.57
2022-08-19T03:04:13.971Z,9.60
2022-08-19T03:06:43.651Z,10.00
2022-08-19T03:09:11.056Z,9.73
2022-08-19T03:11:38.426Z,9.75
2022-08-19T03:14:07.968Z,9.70
2022-08-19T03:16:50.711Z,10.20
2022-08-19T03:19:20.014Z,9.82
2022-08-19T03:21:47.176Z,10.13
2022-08-19T03:24:15.639Z,9.65
2022-08-19T03:26:48.852Z,10.63
2022-08-19T03:29:28.332Z,7.82
2022-08-19T03:32:01.950Z,9.60
2022-08-19T03:34:35.154Z,10.30
2022-08-19T03:37:07.364Z,9.23
2022-08-19T03:39:36.504Z,9.15
2022-08-19T03:42:31.916Z,8.98
2022-08-19T03:44:50.633Z,8.90
2022-08-19T03:47:17.923Z,8.50
2022-08-19T03:49:45.634Z,7.97
2022-08-19T03:52:12.586Z,8.70
2022-08-19T03:54:39.642Z,8.70
2022-08-19T03:57:07.161Z,8.85
2022-08-19T03:59:36.279Z,8.05
2022-08-19T04:02:10.000Z,8.85
2022-08-19T04:04:39.754Z,8.75
2022-08-19T04:07:07.317Z,9.18
2022-08-19T04:09:35.393Z,9.00
2022-08-19T04:12:02.219Z,9.65
2022-08-19T04:14:34.618Z,8.00
2022-08-19T04:17:04.425Z,8.33
2022-08-19T04:19:31.811Z,8.43
2022-08-19T04:21:59.518Z,10.32
2022-08-19T04:24:26.392Z,8.90
2022-08-19T04:26:53.870Z,8.77
2022-08-19T04:29:25.816Z,8.90
2022-08-19T04:31:54.995Z,8.68
2022-08-19T04:34:25.148Z,8.20
2022-08-19T04:36:56.576Z,9.68
2022-08-19T04:39:49.899Z,9.20
2022-08-19T04:42:37.060Z,8.77
2022-08-19T04:45:06.443Z,9.38
2022-08-19T04:47:47.857Z,8.25
2022-08-19T04:50:27.261Z,7.75
2022-08-19T04:52:56.518Z,8.45
2022-08-19T04:55:26.614Z,9.77
2022-08-19T04:57:55.071Z,8.82
2022-08-19T05:00:22.243Z,8.52
2022-08-19T05:02:50.135Z,8.43
2022-08-19T05:05:18.099Z,8.07
2022-08-19T05:07:44.883Z,8.13
2022-08-19T05:10:12.545Z,8.77
2022-08-19T05:12:40.051Z,8.73
2022-08-19T05:15:09.411Z,9.02
2022-08-19T05:17:38.869Z,8.57
2022-08-19T05:20:26.740Z,8.38
2022-08-19T05:22:53.826Z,8.35
2022-08-19T05:25:22.721Z,8.10
2022-08-19T05:27:49.904Z,8.77
2022-08-19T05:30:17.703Z,7.70
2022-08-19T05:32:44.739Z,7.60
2022-08-19T05:35:12.451Z,7.38
2022-08-19T05:37:41.434Z,7.13
2022-08-19T05:40:10.333Z,7.55
2022-08-19T05:42:37.801Z,7.90
2022-08-19T05:45:05.513Z,7.60
2022-08-19T05:47:33.241Z,7.22
2022-08-19T05:50:02.760Z,7.03
2022-08-19T05:52:32.653Z,8.00
2022-08-19T05:55:00.815Z,7.10
2022-08-19T05:57:29.900Z,7.55
2022-08-19T05:59:59.095Z,7.30
2022-08-19T06:02:28.067Z,7.05
2022-08-19T06:04:54.916Z,6.57
2022-08-19T06:07:21.893Z,8.07
2022-08-19T06:09:48.909Z,7.05
2022-08-19T06:12:29.889Z,6.68
2022-08-19T06:15:01.685Z,6.90
2022-08-19T06:17:32.730Z,6.20
2022-08-19T06:20:00.213Z,6.60
2022-08-19T06:22:28.180Z,6.68
2022-08-19T06:24:56.281Z,6.72
2022-08-19T06:27:24.134Z,6.30
2022-08-19T06:29:51.200Z,6.13
2022-08-19T06:32:22.433Z,6.80
2022-08-19T06:34:49.433Z,6.13
2022-08-19T06:37:16.496Z,6.13
2022-08-19T06:39:44.906Z,6.13
2022-08-19T06:42:14.371Z,6.18
2022-08-19T06:44:48.115Z,6.25
2022-08-19T06:47:22.999Z,6.20
2022-08-19T06:50:01.005Z,5.32
2022-08-19T06:52:28.753Z,5.63
2022-08-19T06:54:57.172Z,4.97
2022-08-19T06:57:27.278Z,5.22
2022-08-19T06:59:54.384Z,5.40
2022-08-19T07:02:21.755Z,5.50
2022-08-19T07:04:48.855Z,5.25
2022-08-19T07:07:22.098Z,6.28
2022-08-19T07:09:58.313Z,5.35
2022-08-19T07:12:31.738Z,5.60
2022-08-19T07:14:59.088Z,5.43
2022-08-19T07:17:28.113Z,6.30
2022-08-19T07:19:56.239Z,6.28
2022-08-19T07:22:26.073Z,5.75
2022-08-19T07:24:53.580Z,5.38
2022-08-19T07:27:24.283Z,5.50
2022-08-19T07:29:56.113Z,6.18
2022-08-19T07:32:27.677Z,5.15
2022-08-19T07:34:55.317Z,6.28
2022-08-19T07:37:32.446Z,5.53
2022-08-19T07:40:01.555Z,5.85
2022-08-19T07:42:30.720Z,5.63
2022-08-19T07:44:58.825Z,5.47
2022-08-19T07:47:48.074Z,5.70
2022-08-19T07:50:12.974Z,5.47
2022-08-19T07:52:40.842Z,5.45
2022-08-19T07:55:13.596Z,5.03
2022-08-19T07:57:59.552Z,5.93
2022-08-19T08:00:27.243Z,5.47
2022-08-19T08:02:55.255Z,6.45
2022-08-19T08:05:43.915Z,5.30
2022-08-19T08:08:30.644Z,5.50
2022-08-19T08:10:57.687Z,5.25
2022-08-19T08:13:26.505Z,5.85
2022-08-19T08:15:56.084Z,5.28
2022-08-19T08:18:27.709Z,5.10
2022-08-19T08:20:56.485Z,4.90
2022-08-19T08:23:25.970Z,4.80
2022-08-19T08:25:56.027Z,4.57
2022-08-19T08:28:23.348Z,4.95
2022-08-19T08:30:51.252Z,4.80
2022-08-19T08:33:29.892Z,5.05
2022-08-19T08:38:38.959Z,4.60
2022-08-19T08:41:27.057Z,5.13
2022-08-19T08:43:55.142Z,4.70
2022-08-19T08:46:41.151Z,5.20
2022-08-19T08:49:14.223Z,4.65
2022-08-19T08:51:56.061Z,4.95
2022-08-19T08:54:32.920Z,5.10
2022-08-19T08:57:05.051Z,4.72
2022-08-19T08:59:38.128Z,5.40
2022-08-19T09:02:05.600Z,4.78
2022-08-19T09:04:32.671Z,4.53
2022-08-19T09:07:34.848Z,5.25
2022-08-19T09:10:08.048Z,4.93
2022-08-19T09:12:44.666Z,4.57
2022-08-19T09:15:15.814Z,4.78
2022-08-19T09:17:42.770Z,5.20
2022-08-19T09:20:10.304Z,5.20
2022-08-19T09:22:39.526Z,4.65
2022-08-19T09:25:08.623Z,4.10
2022-08-19T09:27:42.477Z,4.63
2022-08-19T09:30:24.781Z,5.13
2022-08-19T09:32:55.453Z,5.18
2022-08-19T09:35:26.404Z,4.57
2022-08-19T09:37:59.828Z,5.00
2022-08-19T09:40:30.307Z,4.20
2022-08-19T09:42:58.690Z,4.60
2022-08-19T09:45:25.515Z,4.80
2022-08-19T09:47:54.580Z,4.70
2022-08-19T09:50:23.187Z,4.70
2022-08-19T09:52:55.034Z,4.53
2022-08-19T09:55:31.984Z,4.50
2022-08-19T09:58:01.165Z,5.13
2022-08-19T10:00:28.256Z,4.60
2022-08-19T10:02:55.008Z,4.75
2022-08-19T10:05:42.164Z,4.63
2022-08-19T10:08:13.513Z,4.10
2022-08-19T10:10:46.744Z,4.65
2022-08-19T10:13:16.450Z,4.15
2022-08-19T10:15:47.225Z,4.82
2022-08-19T10:18:17.703Z,4.95
2022-08-19T10:20:46.615Z,4.43
2022-08-19T10:23:20.854Z,4.70
2022-08-19T10:25:48.848Z,4.28
2022-08-19T10:28:15.673Z,4.40
2022-08-19T10:30:42.991Z,4.30
2022-08-19T10:33:10.999Z,4.70
2022-08-19T10:35:42.810Z,4.47
2022-08-19T10:38:29.948Z,4.50
2022-08-19T10:40:59.637Z,4.63
2022-08-19T10:43:26.576Z,4.50
2022-08-19T10:45:57.375Z,4.43
2022-08-19T10:48:24.180Z,4.20
2022-08-19T10:51:09.335Z,4.57
2022-08-19T10:53:36.135Z,3.97
2022-08-19T10:56:21.888Z,5.10
2022-08-19T10:58:49.390Z,4.28
2022-08-19T11:01:16.412Z,4.50
2022-08-19T11:03:43.222Z,4.00
2022-08-19T11:06:10.033Z,4.53
2022-08-19T11:08:41.803Z,4.40
2022-08-19T11:11:09.844Z,4.50
2022-08-19T11:13:39.540Z,4.65
2022-08-19T11:16:16.865Z,4.28
2022-08-19T11:18:46.448Z,3.75
2022-08-19T11:21:21.066Z,4.13
2022-08-19T11:23:55.436Z,4.10
2022-08-19T11:26:22.967Z,4.20
2022-08-19T11:28:52.890Z,4.90
2022-08-19T11:31:21.757Z,5.05
2022-08-19T11:33:54.803Z,4.20
2022-08-19T11:36:22.975Z,4.70
2022-08-19T11:38:50.979Z,4.40
2022-08-19T11:41:21.401Z,5.00
2022-08-19T11:43:48.127Z,4.75
2022-08-19T11:46:17.018Z,4.50
2022-08-19T11:48:44.531Z,4.60
2022-08-19T11:51:16.722Z,4.60
2022-08-19T11:56:10.311Z,4.70
2022-08-19T11:58:37.362Z,5.30
2022-08-19T12:01:18.660Z,4.97
2022-08-19T12:03:47.432Z,4.03
2022-08-19T12:06:17.083Z,3.97
2022-08-19T12:08:44.979Z,7.22
2022-08-19T12:11:14.654Z,7.78
2022-08-19T12:13:45.885Z,5.95
2022-08-19T12:16:18.003Z,4.35
2022-08-19T12:18:48.826Z,4.80
2022-08-19T12:21:17.917Z,5.10
2022-08-19T12:23:50.765Z,4.40
2022-08-19T12:26:19.682Z,4.18
2022-08-19T12:28:46.893Z,5.07
2022-08-19T12:31:13.652Z,4.00
2022-08-19T12:33:42.481Z,4.10
2022-08-19T12:36:12.420Z,4.43
2022-08-19T12:38:39.971Z,4.35
2022-08-19T12:41:09.976Z,6.38
2022-08-19T12:43:38.590Z,8.52
2022-08-19T12:46:06.851Z,11.07
2022-08-19T12:48:38.480Z,6.70
2022-08-19T12:51:09.066Z,8.15
2022-08-19T12:53:39.388Z,7.88
2022-08-19T12:56:12.476Z,8.48
2022-08-19T12:58:49.082Z,9.65
2022-08-19T13:01:22.746Z,10.05
2022-08-19T13:03:53.483Z,10.77
2022-08-19T13:06:22.512Z,10.68
2022-08-19T13:08:49.610Z,10.20
2022-08-19T13:11:20.148Z,10.48
2022-08-19T13:13:49.556Z,9.85
2022-08-19T13:16:16.879Z,9.60
2022-08-19T13:18:48.279Z,10.10
2022-08-19T13:21:15.277Z,10.40
2022-08-19T13:23:42.840Z,9.93
2022-08-19T13:26:11.255Z,9.52
2022-08-19T13:28:56.938Z,9.65
2022-08-19T13:31:45.164Z,10.18
2022-08-19T13:34:13.061Z,8.93
2022-08-19T13:36:40.190Z,9.32
2022-08-19T13:39:09.381Z,8.93
2022-08-19T13:41:37.146Z,8.73
2022-08-19T13:44:05.501Z,8.82
2022-08-19T13:46:32.304Z,8.40
2022-08-19T13:48:59.266Z,7.85
2022-08-19T13:51:26.316Z,6.85
2022-08-19T13:53:53.166Z,6.53
2022-08-19T13:56:24.130Z,7.00
2022-08-19T13:58:54.391Z,7.55
2022-08-19T14:01:24.360Z,6.53
2022-08-19T14:03:51.800Z,6.65
2022-08-19T14:06:19.919Z,5.78
2022-08-19T14:08:47.517Z,7.30
2022-08-19T14:11:14.560Z,8.45
2022-08-19T14:13:41.960Z,6.90
2022-08-19T14:16:11.580Z,6.07
2022-08-19T14:18:39.458Z,4.55
2022-08-19T14:21:07.665Z,4.53
2022-08-19T14:23:37.007Z,4.13
2022-08-19T14:26:16.082Z,4.40
2022-08-19T14:28:44.299Z,4.20
2022-08-19T14:31:13.686Z,3.80
2022-08-19T14:33:41.412Z,3.78
2022-08-19T14:36:08.411Z,3.80
2022-08-19T14:38:35.461Z,4.70
2022-08-19T14:41:17.996Z,3.58
2022-08-19T14:43:47.397Z,3.88
2022-08-19T14:46:17.038Z,3.45
2022-08-19T14:48:44.435Z,4.90
2022-08-19T14:51:11.704Z,4.05
2022-08-19T14:53:38.753Z,3.75
2022-08-19T14:56:14.685Z,4.85
2022-08-19T14:58:43.649Z,2.58
2022-08-19T15:01:12.135Z,3.58
2022-08-19T15:03:40.338Z,3.08
2022-08-19T15:06:07.875Z,2.65
2022-08-19T15:08:37.810Z,2.33
2022-08-19T15:11:10.753Z,2.92
2022-08-19T15:13:38.006Z,2.22
2022-08-19T15:16:05.250Z,3.00
2022-08-19T15:18:33.560Z,2.60
2022-08-19T15:21:00.532Z,3.60
2022-08-19T15:23:27.815Z,2.60
2022-08-19T15:25:56.526Z,2.20
2022-08-19T15:28:28.354Z,2.30
2022-08-19T15:30:55.189Z,2.70
2022-08-19T15:33:22.019Z,2.78
2022-08-19T15:35:51.593Z,2.67
2022-08-19T15:38:24.389Z,2.95
2022-08-19T15:40:51.675Z,2.63
2022-08-19T15:43:21.704Z,2.63
2022-08-19T15:45:49.529Z,2.75
2022-08-19T15:48:17.049Z,2.50
2022-08-19T15:50:43.819Z,3.97
2022-08-19T15:53:11.284Z,2.78
2022-08-19T15:55:45.069Z,2.28
2022-08-19T15:58:33.541Z,5.35
2022-08-19T16:01:27.140Z,5.15
2022-08-19T16:04:17.900Z,6.28
2022-08-19T16:06:49.139Z,2.72
2022-08-19T16:09:17.465Z,2.10
2022-08-19T16:11:46.076Z,2.70
2022-08-19T16:14:18.578Z,3.13
2022-08-19T16:16:47.215Z,9.27
2022-08-19T16:19:17.179Z,18.73
2022-08-19T16:21:46.836Z,10.10
2022-08-19T16:24:15.519Z,4.25
2022-08-19T16:26:43.780Z,2.40
2022-08-19T16:29:12.112Z,2.00
2022-08-19T16:31:41.582Z,2.45
2022-08-19T16:34:08.632Z,2.05
2022-08-19T16:36:35.741Z,2.08
2022-08-19T16:39:03.725Z,2.85
2022-08-19T16:41:30.700Z,3.83
2022-08-19T16:43:57.603Z,2.70
2022-08-19T16:46:26.834Z,2.42
2022-08-19T16:48:54.677Z,2.67
2022-08-19T16:51:22.874Z,1.90
2022-08-19T16:53:52.465Z,2.40
2022-08-19T16:56:21.180Z,1.83
2022-08-19T16:58:50.499Z,3.10
2022-08-19T17:01:18.208Z,2.85
2022-08-19T17:03:45.386Z,2.08
2022-08-19T17:06:20.790Z,1.92
2022-08-19T17:08:52.739Z,2.53
2022-08-19T17:11:21.130Z,3.00
2022-08-19T17:13:50.324Z,2.22
2022-08-19T17:16:19.803Z,2.60
2022-08-19T17:18:46.537Z,2.70
2022-08-19T17:21:13.414Z,2.65
2022-08-19T17:23:42.646Z,2.78
2022-08-19T17:26:11.476Z,3.15
2022-08-19T17:28:44.745Z,4.15
2022-08-19T17:31:11.760Z,3.00
2022-08-19T17:33:41.274Z,3.35
2022-08-19T17:36:09.060Z,2.65
2022-08-19T17:38:37.680Z,2.78
2022-08-19T17:41:04.805Z,2.92
2022-08-19T17:43:40.107Z,3.17
2022-08-19T17:46:18.753Z,2.80
2022-08-19T17:48:55.125Z,3.25
2022-08-19T17:51:27.111Z,3.20
2022-08-19T17:53:54.660Z,2.00
2022-08-19T17:56:22.104Z,2.45
2022-08-19T17:58:57.750Z,3.33
2022-08-19T18:01:43.013Z,2.08
2022-08-19T18:04:17.166Z,2.47
2022-08-19T18:06:46.577Z,2.50
2022-08-19T18:09:28.759Z,2.72
2022-08-19T18:12:06.938Z,2.20
2022-08-19T18:14:36.418Z,2.63
2022-08-19T18:17:09.917Z,2.75
2022-08-19T18:19:41.544Z,2.60
2022-08-19T18:22:12.172Z,2.40
2022-08-19T18:24:41.670Z,3.58
2022-08-19T18:27:10.008Z,3.00
2022-08-19T18:29:38.425Z,3.00
2022-08-19T18:32:12.563Z,3.03
2022-08-19T18:34:43.433Z,3.17
2022-08-19T18:37:11.024Z,2.30
2022-08-19T18:39:57.066Z,2.72
2022-08-19T18:42:42.847Z,2.83
2022-08-19T18:45:29.187Z,2.67
2022-08-19T18:48:26.490Z,3.22
2022-08-19T18:53:34.712Z,2.35
2022-08-19T18:56:02.228Z,3.92
2022-08-19T18:58:34.685Z,4.22
2022-08-19T19:01:14.870Z,3.72
2022-08-19T19:03:47.693Z,3.80
2022-08-19T19:06:21.788Z,3.90
2022-08-19T19:08:50.421Z,3.28
2022-08-19T19:11:24.525Z,3.70
2022-08-19T19:13:51.863Z,3.88
2022-08-19T19:16:23.720Z,3.58
2022-08-19T19:18:52.656Z,3.88
2022-08-19T19:21:23.052Z,3.45
2022-08-19T19:23:50.791Z,3.30
2022-08-19T19:26:17.995Z,6.30
2022-08-19T19:28:47.882Z,3.38
2022-08-19T19:31:18.907Z,3.40
2022-08-19T19:33:46.349Z,3.53
2022-08-19T19:36:14.015Z,3.40
2022-08-19T19:38:48.286Z,3.67
2022-08-19T19:41:18.592Z,3.40
2022-08-19T19:43:45.339Z,4.38
2022-08-19T19:46:12.541Z,5.03
2022-08-19T19:48:39.522Z,3.88
2022-08-19T19:51:06.397Z,3.20
2022-08-19T19:53:33.852Z,3.45
2022-08-19T19:56:02.474Z,4.78
2022-08-19T19:58:31.229Z,3.38
2022-08-19T20:00:59.280Z,4.00
2022-08-19T20:03:27.206Z,2.80
2022-08-19T20:05:54.922Z,3.55
2022-08-19T20:08:40.599Z,3.38
2022-08-19T20:11:07.872Z,4.90
2022-08-19T20:13:35.326Z,3.35
2022-08-19T20:16:05.934Z,2.58
2022-08-19T20:18:32.883Z,3.40
2022-08-19T20:21:00.080Z,4.05
2022-08-19T20:23:27.083Z,4.07
2022-08-19T20:25:54.439Z,4.70
2022-08-19T20:28:22.911Z,4.30
2022-08-19T20:30:50.351Z,5.55
2022-08-19T20:33:17.614Z,5.07
2022-08-19T20:35:45.311Z,6.32
2022-08-19T20:38:12.608Z,5.03
2022-08-19T20:40:41.086Z,6.63
2022-08-19T20:43:10.738Z,7.18
2022-08-19T20:45:38.240Z,6.60
2022-08-19T20:48:07.487Z,7.18
2022-08-19T20:50:36.006Z,7.15
2022-08-19T20:53:13.989Z,8.23
2022-08-19T20:55:44.466Z,7.68
2022-08-19T20:58:13.425Z,7.45
2022-08-19T21:00:41.618Z,8.40
2022-08-19T21:03:08.640Z,6.93
2022-08-19T21:05:36.102Z,8.65
2022-08-19T21:08:04.666Z,7.63
2022-08-19T21:10:32.633Z,8.00
2022-08-19T21:12:59.424Z,9.40
2022-08-19T21:15:26.553Z,9.00
2022-08-19T21:17:53.698Z,8.15
2022-08-19T21:20:20.766Z,6.88
2022-08-19T21:22:47.567Z,8.43
2022-08-19T21:25:16.459Z,8.57
2022-08-19T21:27:43.492Z,8.75
2022-08-19T21:30:11.162Z,9.32
2022-08-19T21:32:38.128Z,8.85
2022-08-19T21:35:05.257Z,10.13
2022-08-19T21:37:34.845Z,9.27
2022-08-19T21:40:01.907Z,8.80
2022-08-19T21:42:28.721Z,8.98
2022-08-19T21:44:55.488Z,8.55
2022-08-19T21:47:22.429Z,7.90
2022-08-19T21:49:49.228Z,7.88
2022-08-19T21:52:22.195Z,9.00
2022-08-19T21:54:49.154Z,8.63
2022-08-19T21:57:15.891Z,8.25
2022-08-19T21:59:44.102Z,9.15
2022-08-19T22:02:21.490Z,8.93
2022-08-19T22:04:53.007Z,7.95
2022-08-19T22:07:21.997Z,8.50
2022-08-19T22:09:50.699Z,8.93
2022-08-19T22:12:34.646Z,8.50
2022-08-19T22:15:02.028Z,9.25
2022-08-19T22:17:29.964Z,8.70
2022-08-19T22:19:57.155Z,9.68
2022-08-19T22:22:27.696Z,9.20
2022-08-19T22:25:00.253Z,9.35
2022-08-19T22:27:28.142Z,9.98
2022-08-19T22:29:55.457Z,8.93
2022-08-19T22:32:28.296Z,9.00
2022-08-19T22:34:58.681Z,9.13
2022-08-19T22:37:28.878Z,9.15
2022-08-19T22:39:56.057Z,8.15
2022-08-19T22:42:23.520Z,8.65
2022-08-19T22:44:50.270Z,9.02
2022-08-19T22:47:17.515Z,8.48
2022-08-19T22:49:44.933Z,9.18
2022-08-19T22:52:17.647Z,8.57
2022-08-19T22:54:53.426Z,8.43
2022-08-19T22:57:21.997Z,7.68
2022-08-19T22:59:50.619Z,7.57
2022-08-19T23:02:26.313Z,8.05
2022-08-19T23:04:54.368Z,8.15
2022-08-19T23:07:23.649Z,7.53
2022-08-19T23:09:51.139Z,9.38
2022-08-19T23:12:30.616Z,8.10
2022-08-19T23:15:09.118Z,8.35
2022-08-19T23:17:37.020Z,9.07
2022-08-19T23:20:05.589Z,8.10
2022-08-19T23:22:32.900Z,8.85
2022-08-19T23:25:11.997Z,8.32
2022-08-19T23:27:57.384Z,8.38
2022-08-19T23:30:27.469Z,8.18
2022-08-19T23:33:12.319Z,8.98
2022-08-19T23:35:41.704Z,8.60
2022-08-19T23:38:09.870Z,7.32
2022-08-19T23:40:38.766Z,7.82
2022-08-19T23:43:08.204Z,7.45
2022-08-19T23:45:50.905Z,8.10
2022-08-19T23:48:18.704Z,8.02
2022-08-19T23:50:46.148Z,8.88
2022-08-19T23:53:13.239Z,7.90
2022-08-19T23:55:43.953Z,8.15
2022-08-19T23:58:13.793Z,7.25
